createdAt,value
2022-10-09T00:00:22.124Z,99.99
2022-10-09T00:01:22.144Z,99.99
2022-10-09T00:02:22.170Z,99.99
2022-10-09T00:03:22.082Z,99.99
2022-10-09T00:04:22.803Z,99.99
2022-10-09T00:05:23.029Z,99.99
2022-10-09T00:06:22.879Z,99.99
2022-10-09T00:07:22.022Z,99.99
2022-10-09T00:08:22.027Z,99.99
2022-10-09T00:09:22.004Z,99.99
2022-10-09T00:10:21.998Z,99.99
2022-10-09T00:11:22.012Z,99.99
2022-10-09T00:12:21.969Z,99.99
2022-10-09T00:13:21.956Z,99.99
2022-10-09T00:14:21.940Z,99.99
2022-10-09T00:15:21.931Z,99.99
2022-10-09T00:16:21.995Z,99.99
2022-10-09T00:17:21.898Z,99.99
2022-10-09T00:18:21.888Z,99.99
2022-10-09T00:19:21.870Z,99.99
2022-10-09T00:20:21.872Z,99.99
2022-10-09T00:21:21.863Z,99.99
2022-10-09T00:22:21.859Z,99.99
2022-10-09T00:23:22.778Z,99.99
2022-10-09T00:24:21.820Z,99.99
2022-10-09T00:25:21.789Z,99.99
2022-10-09T00:26:21.859Z,99.99
2022-10-09T00:27:21.777Z,99.99
2022-10-09T00:28:21.879Z,99.99
2022-10-09T00:29:21.766Z,99.99
2022-10-09T00:30:21.777Z,99.99
2022-10-09T00:31:21.859Z,99.99
2022-10-09T00:32:21.737Z,99.99
2022-10-09T00:33:22.579Z,99.99
2022-10-09T00:34:21.908Z,99.99
2022-10-09T00:35:21.697Z,99.99
2022-10-09T00:36:21.697Z,99.99
2022-10-09T00:37:21.657Z,99.99
2022-10-09T00:38:21.645Z,99.99
2022-10-09T00:39:21.618Z,99.99
2022-10-09T00:40:21.631Z,99.99
2022-10-09T00:41:21.623Z,99.99
2022-10-09T00:42:21.658Z,99.99
2022-10-09T00:43:21.576Z,99.99
2022-10-09T00:44:21.565Z,99.99
2022-10-09T00:45:21.535Z,99.99
2022-10-09T00:46:21.609Z,99.99
2022-10-09T00:47:21.505Z,99.99
2022-10-09T00:48:21.506Z,99.99
2022-10-09T00:49:22.946Z,99.99
2022-10-09T00:50:21.476Z,99.99
2022-10-09T00:51:21.501Z,99.99
2022-10-09T00:52:21.463Z,99.99
2022-10-09T00:53:21.446Z,99.99
2022-10-09T00:54:21.425Z,99.99
2022-10-09T00:55:21.416Z,99.99
2022-10-09T00:56:21.441Z,99.99
2022-10-09T00:57:21.385Z,99.99
2022-10-09T00:58:21.374Z,99.99
2022-10-09T00:59:21.365Z,99.99
2022-10-09T01:00:21.351Z,99.99
2022-10-09T01:01:21.413Z,99.99
2022-10-09T01:02:21.367Z,99.99
2022-10-09T01:03:22.254Z,99.99
2022-10-09T01:04:21.303Z,99.99
2022-10-09T01:05:21.291Z,99.99
2022-10-09T01:06:21.313Z,99.99
2022-10-09T01:07:21.261Z,99.99
2022-10-09T01:08:21.253Z,99.99
2022-10-09T01:09:21.234Z,99.99
2022-10-09T01:10:21.228Z,99.99
2022-10-09T01:11:21.306Z,99.99
2022-10-09T01:12:21.201Z,99.99
2022-10-09T01:13:21.182Z,99.99
2022-10-09T01:14:21.198Z,99.99
2022-10-09T01:15:21.153Z,99.99
2022-10-09T01:16:23.841Z,99.99
2022-10-09T01:17:21.131Z,99.99
2022-10-09T01:18:21.122Z,99.99
2022-10-09T01:19:21.111Z,99.99
2022-10-09T01:20:22.113Z,99.99
2022-10-09T01:21:21.119Z,99.99
2022-10-09T01:22:21.078Z,99.99
2022-10-09T01:23:21.059Z,99.99
2022-10-09T01:24:21.047Z,99.99
2022-10-09T01:25:21.650Z,99.99
2022-10-09T01:26:21.058Z,99.99
2022-10-09T01:27:21.010Z,99.99
2022-10-09T01:28:21.089Z,99.99
2022-10-09T01:29:20.980Z,99.99
2022-10-09T01:30:20.970Z,99.99
2022-10-09T01:31:21.038Z,99.99
2022-10-09T01:32:20.978Z,99.99
2022-10-09T01:33:21.708Z,99.99
2022-10-09T01:34:20.919Z,99.99
2022-10-09T01:35:20.919Z,99.99
2022-10-09T01:36:20.977Z,99.99
2022-10-09T01:37:20.929Z,99.99
2022-10-09T01:38:21.700Z,99.99
2022-10-09T01:39:21.157Z,99.99
2022-10-09T01:40:21.640Z,99.99
2022-10-09T01:41:21.668Z,99.99
2022-10-09T01:42:20.847Z,99.99
2022-10-09T01:43:20.799Z,99.99
2022-10-09T01:44:21.638Z,99.99
2022-10-09T01:45:21.537Z,99.99
2022-10-09T01:46:21.730Z,99.99
2022-10-09T01:47:22.206Z,99.99
2022-10-09T01:48:22.186Z,99.99
2022-10-09T01:49:21.685Z,99.99
2022-10-09T01:50:20.710Z,99.99
2022-10-09T01:51:21.807Z,99.99
2022-10-09T01:52:22.171Z,99.99
2022-10-09T01:53:22.106Z,99.99
2022-10-09T01:54:22.108Z,99.99
2022-10-09T01:55:20.690Z,99.99
2022-10-09T01:56:21.509Z,99.99
2022-10-09T01:57:21.435Z,99.99
2022-10-09T01:58:20.646Z,99.99
2022-10-09T01:59:21.500Z,99.99
2022-10-09T02:00:20.598Z,99.99
2022-10-09T02:01:22.409Z,99.99
2022-10-09T02:02:22.115Z,99.99
2022-10-09T02:03:21.383Z,99.99
2022-10-09T02:04:21.259Z,99.99
2022-10-09T02:05:20.596Z,99.99
2022-10-09T02:06:20.652Z,99.99
2022-10-09T02:07:20.705Z,99.99
2022-10-09T02:08:21.385Z,99.99
2022-10-09T02:09:20.814Z,99.99
2022-10-09T02:10:21.185Z,99.99
2022-10-09T02:11:20.934Z,99.99
2022-10-09T02:12:21.013Z,99.99
2022-10-09T02:13:21.053Z,99.99
2022-10-09T02:14:21.318Z,99.99
2022-10-09T02:15:21.224Z,99.99
2022-10-09T02:16:21.885Z,99.99
2022-10-09T02:17:21.842Z,99.99
2022-10-09T02:18:20.383Z,99.99
2022-10-09T02:19:21.782Z,99.99
2022-10-09T02:20:21.788Z,99.99
2022-10-09T02:21:21.152Z,99.99
2022-10-09T02:22:21.803Z,99.99
2022-10-09T02:23:21.011Z,99.99
2022-10-09T02:24:21.147Z,99.99
2022-10-09T02:25:21.710Z,99.99
2022-10-09T02:26:21.200Z,99.99
2022-10-09T02:27:21.321Z,99.99
2022-10-09T02:28:21.721Z,99.99
2022-10-09T02:29:20.242Z,99.99
2022-10-09T02:30:21.665Z,99.99
2022-10-09T02:31:21.040Z,99.99
2022-10-09T02:32:20.212Z,99.99
2022-10-09T02:33:21.034Z,99.99
2022-10-09T02:34:20.934Z,99.99
2022-10-09T02:35:20.145Z,99.99
2022-10-09T02:36:21.025Z,99.99
2022-10-09T02:37:21.614Z,99.99
2022-10-09T02:38:20.129Z,99.99
2022-10-09T02:39:20.118Z,99.99
2022-10-09T02:40:20.599Z,99.99
2022-10-09T02:41:21.015Z,99.99
2022-10-09T02:42:21.518Z,99.99
2022-10-09T02:43:20.858Z,99.99
2022-10-09T02:44:20.046Z,99.99
2022-10-09T02:45:20.899Z,99.99
2022-10-09T02:46:21.557Z,99.99
2022-10-09T02:47:20.980Z,99.99
2022-10-09T02:48:20.867Z,99.99
2022-10-09T02:49:21.406Z,99.99
2022-10-09T02:50:20.700Z,99.99
2022-10-09T02:51:21.409Z,99.99
2022-10-09T02:52:21.397Z,99.99
2022-10-09T02:53:19.911Z,99.99
2022-10-09T02:54:19.896Z,99.99
2022-10-09T02:55:19.894Z,99.99
2022-10-09T02:56:20.617Z,99.99
2022-10-09T02:57:19.918Z,99.99
2022-10-09T02:58:20.507Z,99.99
2022-10-09T02:59:21.285Z,99.99
2022-10-09T03:00:20.744Z,99.99
2022-10-09T03:01:20.717Z,99.99
2022-10-09T03:02:19.964Z,99.99
2022-10-09T03:03:19.796Z,99.99
2022-10-09T03:04:20.616Z,99.99
2022-10-09T03:05:21.207Z,99.99
2022-10-09T03:06:20.067Z,99.99
2022-10-09T03:07:20.585Z,99.99
2022-10-09T03:08:19.723Z,99.99
2022-10-09T03:09:20.635Z,99.99
2022-10-09T03:10:20.283Z,99.99
2022-10-09T03:11:20.343Z,99.99
2022-10-09T03:12:20.428Z,99.99
2022-10-09T03:13:21.106Z,99.99
2022-10-09T03:14:20.454Z,99.99
2022-10-09T03:15:20.566Z,99.99
2022-10-09T03:16:20.579Z,99.99
2022-10-09T03:17:20.402Z,99.99
2022-10-09T03:18:20.735Z,99.99
2022-10-09T03:19:20.464Z,99.99
2022-10-09T03:20:20.377Z,99.99
2022-10-09T03:21:19.583Z,99.99
2022-10-09T03:22:19.583Z,99.99
2022-10-09T03:23:19.534Z,99.99
2022-10-09T03:24:20.265Z,99.99
2022-10-09T03:25:20.402Z,99.99
2022-10-09T03:26:20.314Z,99.99
2022-10-09T03:27:20.230Z,99.99
2022-10-09T03:28:20.598Z,99.99
2022-10-09T03:29:20.282Z,99.99
2022-10-09T03:30:20.191Z,99.99
2022-10-09T03:31:46.434Z,99.99
2022-10-09T03:32:21.961Z,99.99
2022-10-09T03:33:19.558Z,99.99
2022-10-09T03:34:19.382Z,99.99
2022-10-09T03:35:19.398Z,99.99
2022-10-09T03:36:19.391Z,99.99
2022-10-09T03:37:19.391Z,99.99
2022-10-09T03:38:20.782Z,99.99
2022-10-09T03:39:19.324Z,99.99
2022-10-09T03:40:19.312Z,99.99
2022-10-09T03:41:20.140Z,99.99
2022-10-09T03:42:19.330Z,99.99
2022-10-09T03:43:19.282Z,99.99
2022-10-09T03:44:19.260Z,99.99
2022-10-09T03:45:19.261Z,99.99
2022-10-09T03:46:19.407Z,99.99
2022-10-09T03:47:19.261Z,99.99
2022-10-09T03:48:19.210Z,99.99
2022-10-09T03:49:19.208Z,99.99
2022-10-09T03:50:19.189Z,99.99
2022-10-09T03:51:19.263Z,99.99
2022-10-09T03:52:19.186Z,99.99
2022-10-09T03:53:19.154Z,99.99
2022-10-09T03:54:19.146Z,99.99
2022-10-09T03:55:19.142Z,99.99
2022-10-09T03:56:19.118Z,99.99
2022-10-09T03:57:19.137Z,99.99
2022-10-09T03:58:19.322Z,99.99
2022-10-09T03:59:19.358Z,99.99
2022-10-09T04:00:19.101Z,99.99
2022-10-09T04:01:19.099Z,99.99
2022-10-09T04:02:19.091Z,99.99
2022-10-09T04:03:19.016Z,99.99
2022-10-09T04:04:19.009Z,99.99
2022-10-09T04:05:18.996Z,99.99
2022-10-09T04:06:18.986Z,99.99
2022-10-09T04:07:19.004Z,99.99
2022-10-09T04:08:19.848Z,99.99
2022-10-09T04:09:18.949Z,99.99
2022-10-09T04:10:18.947Z,99.99
2022-10-09T04:11:18.918Z,99.99
2022-10-09T04:12:19.365Z,99.99
2022-10-09T04:13:18.896Z,99.99
2022-10-09T04:14:18.877Z,99.99
2022-10-09T04:15:18.876Z,99.99
2022-10-09T04:16:18.909Z,99.99
2022-10-09T04:17:18.946Z,99.99
2022-10-09T04:18:18.836Z,99.99
2022-10-09T04:19:20.282Z,99.99
2022-10-09T04:20:18.802Z,99.99
2022-10-09T04:21:18.796Z,99.99
2022-10-09T04:22:18.814Z,99.99
2022-10-09T04:23:18.764Z,99.99
2022-10-09T04:24:20.203Z,99.99
2022-10-09T04:25:18.744Z,99.99
2022-10-09T04:26:18.725Z,99.99
2022-10-09T04:27:19.385Z,99.99
2022-10-09T04:28:18.751Z,99.99
2022-10-09T04:29:18.687Z,99.99
2022-10-09T04:30:20.305Z,99.99
2022-10-09T04:31:18.703Z,99.99
2022-10-09T04:32:18.683Z,99.99
2022-10-09T04:33:19.494Z,99.99
2022-10-09T04:34:18.624Z,99.99
2022-10-09T04:35:18.615Z,99.99
2022-10-09T04:36:18.602Z,99.99
2022-10-09T04:37:18.612Z,99.99
2022-10-09T04:38:18.587Z,99.99
2022-10-09T04:39:18.566Z,99.99
2022-10-09T04:40:18.562Z,99.99
2022-10-09T04:41:18.538Z,99.99
2022-10-09T04:42:18.841Z,99.99
2022-10-09T04:43:19.319Z,99.99
2022-10-09T04:44:18.499Z,99.99
2022-10-09T04:45:18.501Z,99.99
2022-10-09T04:46:18.539Z,99.99
2022-10-09T04:47:18.464Z,99.99
2022-10-09T04:48:18.451Z,99.99
2022-10-09T04:49:18.438Z,99.99
2022-10-09T04:50:18.420Z,99.99
2022-10-09T04:51:18.440Z,99.99
2022-10-09T04:52:18.444Z,99.99
2022-10-09T04:53:18.378Z,99.99
2022-10-09T04:54:18.369Z,99.99
2022-10-09T04:55:18.350Z,99.99
2022-10-09T04:56:18.391Z,99.99
2022-10-09T04:57:19.250Z,99.99
2022-10-09T04:58:19.148Z,99.99
2022-10-09T04:59:18.299Z,99.99
2022-10-09T05:00:18.308Z,99.99
2022-10-09T05:01:18.344Z,99.99
2022-10-09T05:02:18.299Z,99.99
2022-10-09T05:03:18.249Z,99.99
2022-10-09T05:04:18.203Z,99.99
2022-10-09T05:05:19.673Z,99.99
2022-10-09T05:06:18.260Z,99.99
2022-10-09T05:07:18.610Z,99.99
2022-10-09T05:08:18.878Z,99.99
2022-10-09T05:09:18.192Z,99.99
2022-10-09T05:10:19.610Z,99.99
2022-10-09T05:11:18.198Z,99.99
2022-10-09T05:12:18.819Z,99.99
2022-10-09T05:13:18.124Z,99.99
2022-10-09T05:14:18.107Z,99.99
2022-10-09T05:15:18.057Z,99.99
2022-10-09T05:16:18.154Z,99.99
2022-10-09T05:17:22.768Z,99.99
2022-10-09T05:18:19.030Z,99.99
2022-10-09T05:19:17.985Z,99.99
2022-10-09T05:20:17.996Z,99.99
2022-10-09T05:21:18.746Z,99.99
2022-10-09T05:22:17.959Z,99.99
2022-10-09T05:23:17.940Z,99.99
2022-10-09T05:24:18.706Z,99.99
2022-10-09T05:25:18.869Z,99.99
2022-10-09T05:26:17.926Z,99.99
2022-10-09T05:27:17.885Z,99.99
2022-10-09T05:28:17.891Z,99.99
2022-10-09T05:29:17.886Z,99.99
2022-10-09T05:30:17.855Z,99.99
2022-10-09T05:31:17.885Z,99.99
2022-10-09T05:32:17.826Z,99.99
2022-10-09T05:33:17.919Z,99.99
2022-10-09T05:34:17.810Z,99.99
2022-10-09T05:35:17.776Z,99.99
2022-10-09T05:36:19.264Z,99.99
2022-10-09T05:37:17.773Z,99.99
2022-10-09T05:38:17.754Z,99.99
2022-10-09T05:39:17.750Z,99.99
2022-10-09T05:40:17.722Z,99.99
2022-10-09T05:41:17.735Z,99.99
2022-10-09T05:42:17.693Z,99.99
2022-10-09T05:43:17.686Z,99.99
2022-10-09T05:44:17.672Z,99.99
2022-10-09T05:45:17.657Z,99.99
2022-10-09T05:46:17.739Z,99.99
2022-10-09T05:47:17.648Z,99.99
2022-10-09T05:48:17.640Z,99.99
2022-10-09T05:49:17.609Z,99.99
2022-10-09T05:50:17.609Z,99.99
2022-10-09T05:51:18.686Z,99.99
2022-10-09T05:52:17.575Z,99.99
2022-10-09T05:53:18.482Z,99.99
2022-10-09T05:54:18.391Z,99.99
2022-10-09T05:55:17.543Z,99.99
2022-10-09T05:56:18.431Z,99.99
2022-10-09T05:57:18.363Z,99.99
2022-10-09T05:58:17.673Z,99.99
2022-10-09T05:59:17.472Z,99.99
2022-10-09T06:00:17.468Z,99.99
2022-10-09T06:01:17.465Z,99.99
2022-10-09T06:02:17.559Z,99.99
2022-10-09T06:03:17.426Z,99.99
2022-10-09T06:04:17.414Z,99.99
2022-10-09T06:05:18.063Z,99.99
2022-10-09T06:06:17.402Z,99.99
2022-10-09T06:07:17.408Z,99.99
2022-10-09T06:08:17.371Z,99.99
2022-10-09T06:09:17.393Z,99.99
2022-10-09T06:10:17.352Z,99.99
2022-10-09T06:11:17.335Z,99.99
2022-10-09T06:12:17.419Z,99.99
2022-10-09T06:13:17.301Z,99.99
2022-10-09T06:14:17.290Z,99.99
2022-10-09T06:15:17.269Z,99.99
2022-10-09T06:16:17.325Z,99.99
2022-10-09T06:17:17.279Z,99.99
2022-10-09T06:18:17.234Z,99.99
2022-10-09T06:19:17.226Z,99.99
2022-10-09T06:20:17.942Z,99.99
2022-10-09T06:21:17.189Z,99.99
2022-10-09T06:22:17.469Z,99.99
2022-10-09T06:23:17.937Z,99.99
2022-10-09T06:24:17.158Z,99.99
2022-10-09T06:25:17.141Z,99.99
2022-10-09T06:26:17.139Z,99.99
2022-10-09T06:27:17.148Z,99.99
2022-10-09T06:28:17.197Z,99.99
2022-10-09T06:29:17.087Z,99.99
2022-10-09T06:30:17.078Z,99.99
2022-10-09T06:31:17.137Z,99.99
2022-10-09T06:32:17.101Z,99.99
2022-10-09T06:33:17.048Z,99.99
2022-10-09T06:34:17.017Z,99.99
2022-10-09T06:35:17.007Z,99.99
2022-10-09T06:36:16.998Z,99.99
2022-10-09T06:37:17.034Z,99.99
2022-10-09T06:38:17.006Z,99.99
2022-10-09T06:39:16.958Z,99.99
2022-10-09T06:40:16.946Z,99.99
2022-10-09T06:41:16.933Z,99.99
2022-10-09T06:42:17.007Z,99.99
2022-10-09T06:43:17.005Z,99.99
2022-10-09T06:44:17.268Z,99.99
2022-10-09T06:45:16.899Z,99.99
2022-10-09T06:46:16.906Z,99.99
2022-10-09T06:47:16.897Z,99.99
2022-10-09T06:48:16.867Z,99.99
2022-10-09T06:49:17.020Z,99.99
2022-10-09T06:50:16.826Z,99.99
2022-10-09T06:51:17.005Z,99.99
2022-10-09T06:52:17.030Z,99.99
2022-10-09T06:53:16.778Z,99.99
2022-10-09T06:54:16.785Z,99.99
2022-10-09T06:55:16.744Z,99.99
2022-10-09T06:56:16.745Z,99.99
2022-10-09T06:57:16.763Z,99.99
2022-10-09T06:58:16.715Z,99.99
2022-10-09T06:59:16.753Z,99.99
2022-10-09T07:00:16.694Z,99.99
2022-10-09T07:01:16.760Z,99.99
2022-10-09T07:02:16.761Z,99.99
2022-10-09T07:03:16.649Z,99.99
2022-10-09T07:04:16.643Z,99.99
2022-10-09T07:05:16.628Z,99.99
2022-10-09T07:06:16.623Z,99.99
2022-10-09T07:07:16.622Z,99.99
2022-10-09T07:08:16.583Z,99.99
2022-10-09T07:09:16.572Z,99.99
2022-10-09T07:10:16.575Z,99.99
2022-10-09T07:11:16.563Z,99.99
2022-10-09T07:12:16.571Z,99.99
2022-10-09T07:13:16.512Z,99.99
2022-10-09T07:14:16.565Z,99.99
2022-10-09T07:15:16.493Z,99.99
2022-10-09T07:16:16.669Z,99.99
2022-10-09T07:17:16.496Z,99.99
2022-10-09T07:18:16.455Z,99.99
2022-10-09T07:19:16.455Z,99.99
2022-10-09T07:20:16.461Z,99.99
2022-10-09T07:21:16.412Z,99.99
2022-10-09T07:22:16.424Z,99.99
2022-10-09T07:23:17.849Z,99.99
2022-10-09T07:24:16.380Z,99.99
2022-10-09T07:25:16.370Z,99.99
2022-10-09T07:26:16.349Z,99.99
2022-10-09T07:27:16.373Z,99.99
2022-10-09T07:28:16.418Z,99.99
2022-10-09T07:29:16.322Z,99.99
2022-10-09T07:30:16.291Z,99.99
2022-10-09T07:31:16.344Z,99.99
2022-10-09T07:32:16.300Z,99.99
2022-10-09T07:33:16.259Z,99.99
2022-10-09T07:34:16.251Z,99.99
2022-10-09T07:35:16.229Z,99.99
2022-10-09T07:36:16.219Z,99.99
2022-10-09T07:37:16.241Z,99.99
2022-10-09T07:38:16.189Z,99.99
2022-10-09T07:39:16.180Z,99.99
2022-10-09T07:40:16.159Z,99.99
2022-10-09T07:41:16.148Z,99.99
2022-10-09T07:42:16.177Z,99.99
2022-10-09T07:43:16.128Z,99.99
2022-10-09T07:44:16.109Z,99.99
2022-10-09T07:45:16.109Z,99.99
2022-10-09T07:46:16.146Z,99.99
2022-10-09T07:47:16.116Z,99.99
2022-10-09T07:48:16.099Z,99.99
2022-10-09T07:49:16.063Z,99.99
2022-10-09T07:50:16.036Z,99.99
2022-10-09T07:51:16.027Z,99.99
2022-10-09T07:52:16.038Z,99.99
2022-10-09T07:53:16.017Z,99.99
2022-10-09T07:54:15.979Z,99.99
2022-10-09T07:55:15.999Z,99.99
2022-10-09T07:56:15.959Z,99.99
2022-10-09T07:57:15.966Z,99.99
2022-10-09T07:58:15.939Z,99.99
2022-10-09T07:59:15.916Z,99.99
2022-10-09T08:00:15.918Z,99.99
2022-10-09T08:01:19.831Z,99.99
2022-10-09T08:02:15.939Z,99.99
2022-10-09T08:03:15.866Z,99.99
2022-10-09T08:04:15.848Z,99.99
2022-10-09T08:05:15.846Z,99.99
2022-10-09T08:06:15.826Z,99.99
2022-10-09T08:07:15.866Z,99.99
2022-10-09T08:08:15.807Z,99.99
2022-10-09T08:09:17.247Z,99.99
2022-10-09T08:10:15.787Z,99.99
2022-10-09T08:11:15.772Z,99.99
2022-10-09T08:12:16.530Z,99.99
2022-10-09T08:13:15.842Z,99.99
2022-10-09T08:14:19.269Z,99.99
2022-10-09T08:15:15.717Z,99.99
2022-10-09T08:16:15.916Z,99.99
2022-10-09T08:17:15.736Z,99.99
2022-10-09T08:18:15.666Z,99.99
2022-10-09T08:19:15.679Z,99.99
2022-10-09T08:20:15.656Z,99.99
2022-10-09T08:21:15.636Z,99.99
2022-10-09T08:22:15.671Z,99.99
2022-10-09T08:23:15.616Z,99.99
2022-10-09T08:24:16.527Z,99.99
2022-10-09T08:25:15.584Z,99.99
2022-10-09T08:26:15.570Z,99.99
2022-10-09T08:27:15.592Z,99.99
2022-10-09T08:28:15.585Z,99.99
2022-10-09T08:29:15.540Z,99.99
2022-10-09T08:30:15.515Z,99.99
2022-10-09T08:31:15.573Z,99.99
2022-10-09T08:32:15.532Z,99.99
2022-10-09T08:33:15.482Z,99.87
2022-10-09T08:34:15.464Z,99.51
2022-10-09T08:35:15.466Z,99.21
2022-10-09T08:36:15.442Z,98.90
2022-10-09T08:37:15.457Z,99.10
2022-10-09T08:38:37.606Z,99.16
2022-10-09T08:39:16.400Z,98.75
2022-10-09T08:40:15.383Z,98.50
2022-10-09T08:41:15.373Z,98.91
2022-10-09T08:42:15.388Z,99.07
2022-10-09T08:43:15.353Z,97.02
2022-10-09T08:44:15.339Z,97.38
2022-10-09T08:45:15.342Z,97.28
2022-10-09T08:46:18.462Z,97.17
2022-10-09T08:47:16.323Z,97.07
2022-10-09T08:48:15.287Z,96.87
2022-10-09T08:49:15.273Z,96.15
2022-10-09T08:50:15.267Z,96.45
2022-10-09T08:51:15.242Z,96.77
2022-10-09T08:52:15.252Z,96.35
2022-10-09T08:53:15.222Z,96.50
2022-10-09T08:54:15.213Z,96.50
2022-10-09T08:55:16.172Z,96.91
2022-10-09T08:56:15.182Z,96.70
2022-10-09T08:57:15.202Z,96.81
2022-10-09T08:58:15.162Z,96.70
2022-10-09T08:59:15.142Z,96.81
2022-10-09T09:00:15.152Z,96.70
2022-10-09T09:01:15.150Z,95.89
2022-10-09T09:02:15.144Z,96.35
2022-10-09T09:03:15.093Z,96.15
2022-10-09T09:04:15.072Z,96.45
2022-10-09T09:05:15.080Z,96.35
2022-10-09T09:06:15.062Z,96.35
2022-10-09T09:07:15.072Z,96.77
2022-10-09T09:08:15.024Z,96.82
2022-10-09T09:09:15.015Z,95.59
2022-10-09T09:10:15.000Z,95.49
2022-10-09T09:11:19.365Z,96.00
2022-10-09T09:12:15.991Z,95.95
2022-10-09T09:13:14.952Z,96.16
2022-10-09T09:14:14.991Z,95.40
2022-10-09T09:15:14.942Z,94.48
2022-10-09T09:16:16.617Z,94.23
2022-10-09T09:17:15.009Z,93.47
2022-10-09T09:18:16.723Z,92.30
2022-10-09T09:19:14.961Z,90.92
2022-10-09T09:20:14.877Z,90.78
2022-10-09T09:21:14.858Z,90.06
2022-10-09T09:22:14.863Z,88.70
2022-10-09T09:23:14.840Z,89.26
2022-10-09T09:24:14.819Z,88.31
2022-10-09T09:25:14.802Z,86.77
2022-10-09T09:26:14.782Z,88.17
2022-10-09T09:27:14.807Z,86.59
2022-10-09T09:28:14.799Z,86.69
2022-10-09T09:29:14.811Z,85.57
2022-10-09T09:30:14.732Z,84.75
2022-10-09T09:31:14.883Z,84.72
2022-10-09T09:32:14.781Z,85.13
2022-10-09T09:33:14.691Z,84.88
2022-10-09T09:34:15.629Z,84.03
2022-10-09T09:35:14.680Z,84.94
2022-10-09T09:36:14.650Z,82.87
2022-10-09T09:37:14.670Z,81.65
2022-10-09T09:38:14.633Z,81.74
2022-10-09T09:41:17.041Z,82.87
2022-10-09T09:42:14.611Z,83.54
2022-10-09T09:43:14.583Z,83.44
2022-10-09T09:44:14.555Z,81.51
2022-10-09T09:45:15.400Z,82.21
2022-10-09T09:46:14.759Z,80.35
2022-10-09T09:47:16.376Z,80.62
2022-10-09T09:48:14.590Z,79.97
2022-10-09T09:49:14.491Z,80.64
2022-10-09T09:50:34.965Z,78.47
2022-10-09T09:51:28.181Z,80.36
2022-10-09T09:52:15.471Z,78.19
2022-10-09T09:53:14.458Z,77.55
2022-10-09T09:54:14.422Z,75.82
2022-10-09T09:55:14.450Z,75.93
2022-10-09T09:56:14.397Z,74.61
2022-10-09T09:57:21.008Z,75.52
2022-10-09T09:58:15.360Z,74.30
2022-10-09T09:59:14.360Z,72.41
2022-10-09T10:00:14.360Z,74.30
2022-10-09T10:01:14.385Z,73.49
2022-10-09T10:02:14.734Z,74.14
2022-10-09T10:03:14.311Z,73.63
2022-10-09T10:04:15.210Z,74.91
2022-10-09T10:05:14.319Z,75.28
2022-10-09T10:06:14.270Z,74.37
2022-10-09T10:07:16.031Z,73.02
2022-10-09T10:08:14.232Z,75.25
2022-10-09T10:09:14.229Z,72.28
2022-10-09T10:10:14.214Z,72.48
2022-10-09T10:11:14.201Z,73.66
2022-10-09T10:12:14.212Z,73.32
2022-10-09T10:13:14.189Z,71.87
2022-10-09T10:14:14.213Z,71.97
2022-10-09T10:15:14.160Z,72.24
2022-10-09T10:16:14.225Z,70.93
2022-10-09T10:17:16.461Z,71.53
2022-10-09T10:18:14.112Z,68.91
2022-10-09T10:19:14.101Z,70.93
2022-10-09T10:20:14.084Z,70.09
2022-10-09T10:21:14.843Z,68.20
2022-10-09T10:22:14.088Z,68.87
2022-10-09T10:23:14.074Z,69.28
2022-10-09T10:24:14.033Z,68.47
2022-10-09T10:25:16.087Z,70.53
2022-10-09T10:26:14.003Z,68.00
2022-10-09T10:27:14.443Z,70.32
2022-10-09T10:28:13.996Z,70.62
2022-10-09T10:29:13.972Z,68.10
2022-10-09T10:30:13.963Z,70.62
2022-10-09T10:31:14.029Z,70.02
2022-10-09T10:32:13.952Z,68.80
2022-10-09T10:33:13.913Z,69.55
2022-10-09T10:34:13.893Z,69.85
2022-10-09T10:35:13.890Z,71.73
2022-10-09T10:36:13.873Z,69.62
2022-10-09T10:37:13.892Z,69.92
2022-10-09T10:38:13.843Z,69.01
2022-10-09T10:39:13.833Z,70.02
2022-10-09T10:40:13.835Z,69.89
2022-10-09T10:41:13.803Z,69.18
2022-10-09T10:42:13.824Z,67.66
2022-10-09T10:43:13.803Z,69.08
2022-10-09T10:44:13.766Z,67.76
2022-10-09T10:45:13.754Z,68.07
2022-10-09T10:46:13.866Z,66.45
2022-10-09T10:47:13.771Z,68.87
2022-10-09T10:48:13.713Z,68.04
2022-10-09T10:49:13.717Z,69.35
2022-10-09T10:50:13.684Z,66.22
2022-10-09T10:51:13.685Z,68.64
2022-10-09T10:52:13.708Z,67.02
2022-10-09T10:53:13.655Z,66.72
2022-10-09T10:54:13.646Z,67.43
2022-10-09T10:55:13.634Z,68.81
2022-10-09T10:56:13.615Z,68.01
2022-10-09T10:57:13.632Z,66.79
2022-10-09T10:58:13.647Z,65.85
2022-10-09T10:59:13.574Z,66.36
2022-10-09T11:00:13.563Z,66.46
2022-10-09T11:01:13.604Z,64.34
2022-10-09T11:02:13.566Z,66.76
2022-10-09T11:03:13.587Z,65.85
2022-10-09T11:04:13.547Z,66.02
2022-10-09T11:05:13.505Z,63.30
2022-10-09T11:06:13.715Z,63.50
2022-10-09T11:07:13.506Z,65.01
2022-10-09T11:08:13.460Z,64.24
2022-10-09T11:09:13.456Z,64.84
2022-10-09T11:10:13.495Z,64.98
2022-10-09T11:11:14.326Z,64.95
2022-10-09T11:12:24.665Z,63.13
2022-10-09T11:13:15.418Z,65.88
2022-10-09T11:14:17.835Z,64.37
2022-10-09T11:15:14.388Z,64.27
2022-10-09T11:16:13.439Z,65.18
2022-10-09T11:17:13.388Z,65.78
2022-10-09T11:18:13.638Z,65.25
2022-10-09T11:19:13.327Z,66.16
2022-10-09T11:20:13.310Z,67.63
2022-10-09T11:21:13.318Z,63.90
2022-10-09T11:22:13.310Z,65.79
2022-10-09T11:23:13.332Z,66.19
2022-10-09T11:24:13.282Z,63.78
2022-10-09T11:25:13.251Z,66.06
2022-10-09T11:26:13.239Z,63.65
2022-10-09T11:27:13.251Z,64.35
2022-10-09T11:28:13.256Z,64.25
2022-10-09T11:29:13.203Z,62.94
2022-10-09T11:30:13.183Z,62.94
2022-10-09T11:31:13.235Z,63.95
2022-10-09T11:32:13.190Z,65.36
2022-10-09T11:33:13.149Z,66.23
2022-10-09T11:34:13.139Z,62.91
2022-10-09T11:35:13.118Z,63.01
2022-10-09T11:36:13.111Z,62.41
2022-10-09T11:37:13.140Z,58.91
2022-10-09T11:38:13.081Z,61.36
2022-10-09T11:39:13.060Z,63.07
2022-10-09T11:40:13.840Z,63.17
2022-10-09T11:41:14.000Z,64.15
2022-10-09T11:42:13.907Z,62.24
2022-10-09T11:43:13.022Z,63.11
2022-10-09T11:44:13.000Z,60.89
2022-10-09T11:45:13.001Z,61.00
2022-10-09T11:46:13.014Z,60.29
2022-10-09T11:47:12.995Z,62.51
2022-10-09T11:48:12.952Z,61.43
2022-10-09T11:49:12.953Z,60.22
2022-10-09T11:50:12.931Z,59.82
2022-10-09T11:51:12.911Z,61.56
2022-10-09T11:52:12.930Z,62.87
2022-10-09T11:53:12.882Z,63.07
2022-10-09T11:54:12.878Z,61.16
2022-10-09T11:55:12.856Z,59.95
2022-10-09T11:56:12.852Z,60.05
2022-10-09T11:57:15.325Z,62.24
2022-10-09T11:58:12.822Z,60.25
2022-10-09T11:59:13.774Z,58.74
2022-10-09T12:00:12.793Z,61.36
2022-10-09T12:01:12.885Z,59.84
2022-10-09T12:02:12.859Z,61.76
2022-10-09T12:03:12.753Z,59.17
2022-10-09T12:04:13.521Z,61.79
2022-10-09T12:05:12.723Z,62.19
2022-10-09T12:06:12.725Z,61.49
2022-10-09T12:07:12.727Z,60.45
2022-10-09T12:08:15.410Z,61.25
2022-10-09T12:09:13.673Z,61.76
2022-10-09T12:10:12.668Z,61.36
2022-10-09T12:11:13.502Z,61.56
2022-10-09T12:12:12.672Z,63.98
2022-10-09T12:13:12.624Z,61.33
2022-10-09T12:14:14.393Z,60.02
2022-10-09T12:15:12.597Z,61.93
2022-10-09T12:16:12.700Z,63.45
2022-10-09T12:17:12.645Z,62.24
2022-10-09T12:18:12.562Z,62.74
2022-10-09T12:19:12.555Z,58.71
2022-10-09T12:20:12.573Z,60.15
2022-10-09T12:21:12.536Z,61.46
2022-10-09T12:22:12.537Z,59.84
2022-10-09T12:23:26.273Z,59.24
2022-10-09T12:24:14.226Z,60.35
2022-10-09T12:25:12.474Z,58.23
2022-10-09T12:26:12.458Z,61.36
2022-10-09T12:27:13.187Z,60.05
2022-10-09T12:28:12.471Z,58.84
2022-10-09T12:29:12.427Z,62.44
2022-10-09T12:30:12.414Z,59.22
2022-10-09T12:31:12.501Z,57.30
2022-10-09T12:32:13.224Z,57.93
2022-10-09T12:33:12.377Z,60.75
2022-10-09T12:34:12.357Z,60.75
2022-10-09T12:35:12.375Z,59.72
2022-10-09T12:36:12.367Z,60.32
2022-10-09T12:37:12.326Z,60.12
2022-10-09T12:38:12.311Z,61.23
2022-10-09T12:39:13.038Z,59.72
2022-10-09T12:40:12.292Z,60.72
2022-10-09T12:41:15.632Z,59.42
2022-10-09T12:42:13.248Z,59.31
2022-10-09T12:43:12.240Z,59.92
2022-10-09T12:44:12.228Z,58.34
2022-10-09T12:45:12.213Z,58.54
2022-10-09T12:46:12.295Z,59.77
2022-10-09T12:47:12.191Z,61.29
2022-10-09T12:48:12.210Z,58.36
2022-10-09T12:49:12.160Z,59.57
2022-10-09T12:50:12.800Z,60.78
2022-10-09T12:51:12.487Z,61.18
2022-10-09T12:52:12.121Z,59.37
2022-10-09T12:53:12.110Z,60.38
2022-10-09T12:54:12.100Z,58.67